This is the latest recevied weather packets stored in our database for station/object WX7FGZ-7. If no packets are shown the sender has not sent any weather packets the latest 10 day(s).
| Time | Temp. | Humidity | Pressure | Rain* | Wind** | Luminosity | Snow |
|---|---|---|---|---|---|---|---|
| 1777954447 | 15.56° C | 25% | 1013.4 hPa | 0 mm | - | - | - |
| 1777954369 | 15.56° C | 25% | 1013.6 hPa | 0 mm | - | - | - |
| 1777954145 | 15.56° C | 25% | 1013.6 hPa | 0 mm | - | - | - |
| 1777953740 | 15.56° C | 25% | 1013.1 hPa | 0 mm | - | - | - |
| 1777953558 | 15.56° C | 25% | 1013.1 hPa | 0 mm | - | - | - |
| 1777953507 | 17.22° C | 23% | 1011.5 hPa | 0 mm | - | - | - |
| 1777953500 | 17.22° C | 23% | 1011.5 hPa | 0 mm | - | - | - |
| 1777953197 | 15.56° C | 25% | 1013 hPa | 0 mm | - | - | - |
| 1777952944 | 15.56° C | 25% | 1013 hPa | 0 mm | - | - | - |
| 1777951098 | 16.11° C | 24% | 1012.6 hPa | 0 mm | - | - | - |
| 1777950892 | 16.11° C | 24% | 1012.6 hPa | 0 mm | - | - | - |
| 1777950560 | 16.11° C | 24% | 1012.4 hPa | 0 mm | - | - | - |
| 1777950323 | 16.11° C | 24% | 1012.4 hPa | 0 mm | - | - | - |
| 1777949996 | 16.11° C | 24% | 1012.4 hPa | 0 mm | - | - | - |
| 1777949586 | 16.67° C | 24% | 1012.5 hPa | 0 mm | - | - | - |
| 1777949282 | 16.67° C | 24% | 1012.5 hPa | 0 mm | - | - | - |
| 1777948989 | 16.67° C | 23% | 1012.4 hPa | 0 mm | - | - | - |
| 1777948157 | 16.67° C | 23% | 1011.9 hPa | 0 mm | - | - | - |
| 1777947554 | 17.22° C | 23% | 1011.5 hPa | 0 mm | - | - | - |
| 1777947261 | 17.22° C | 23% | 1011.5 hPa | 0 mm | - | - | - |
| 1777946770 | 17.78° C | 23% | 1011 hPa | 0 mm | - | - | - |
| 1777946653 | 17.78° C | 23% | 1011.4 hPa | 0 mm | - | - | - |
| 1777946358 | 17.78° C | 24% | 1011.1 hPa | 0 mm | - | - | - |
| 1777945770 | 17.78° C | 23% | 1011 hPa | 0 mm | - | - | - |
| 1777944871 | 18.33° C | 24% | 1011.8 hPa | 0 mm | - | - | - |
* Rain latest hour (hover to see other rain measurements)
** Current wind speed in m/s (hover to see current wind gust speed)